sensor_id;sensor_type;location;lat;lon;timestamp;temperature;humidity
5960;DHT22;3006;50.956;7.002;2023-02-01T00:00:55;8.20;99.90
5960;DHT22;3006;50.956;7.002;2023-02-01T00:03:23;8.20;99.90
5960;DHT22;3006;50.956;7.002;2023-02-01T00:05:57;8.20;99.90
5960;DHT22;3006;50.956;7.002;2023-02-01T00:08:25;8.20;99.90
5960;DHT22;3006;50.956;7.002;2023-02-01T00:11:01;8.20;99.90
5960;DHT22;3006;50.956;7.002;2023-02-01T00:13:29;8.20;99.90
5960;DHT22;3006;50.956;7.002;2023-02-01T00:16:07;8.10;99.90
5960;DHT22;3006;50.956;7.002;2023-02-01T00:18:35;8.10;99.90
5960;DHT22;3006;50.956;7.002;2023-02-01T00:21:04;8.10;99.90
5960;DHT22;3006;50.956;7.002;2023-02-01T00:23:33;8.10;99.90
5960;DHT22;3006;50.956;7.002;2023-02-01T00:26:01;8.10;99.90
5960;DHT22;3006;50.956;7.002;2023-02-01T00:28:29;8.00;99.90
5960;DHT22;3006;50.956;7.002;2023-02-01T00:30:58;8.00;99.90
5960;DHT22;3006;50.956;7.002;2023-02-01T00:33:28;8.00;99.90
5960;DHT22;3006;50.956;7.002;2023-02-01T00:35:57;8.00;99.90
5960;DHT22;3006;50.956;7.002;2023-02-01T00:38:26;8.10;99.90
5960;DHT22;3006;50.956;7.002;2023-02-01T00:40:54;8.00;99.90
5960;DHT22;3006;50.956;7.002;2023-02-01T00:43:22;8.00;99.90
5960;DHT22;3006;50.956;7.002;2023-02-01T00:45:51;8.10;99.90
5960;DHT22;3006;50.956;7.002;2023-02-01T00:48:19;8.00;99.90
5960;DHT22;3006;50.956;7.002;2023-02-01T00:50:48;7.90;99.90
5960;DHT22;3006;50.956;7.002;2023-02-01T00:53:16;8.00;99.90
5960;DHT22;3006;50.956;7.002;2023-02-01T00:55:45;8.00;99.90
5960;DHT22;3006;50.956;7.002;2023-02-01T00:58:13;8.00;99.90
5960;DHT22;3006;50.956;7.002;2023-02-01T01:00:41;8.00;99.90
5960;DHT22;3006;50.956;7.002;2023-02-01T01:03:09;8.00;99.90
5960;DHT22;3006;50.956;7.002;2023-02-01T01:05:45;8.00;99.90
5960;DHT22;3006;50.956;7.002;2023-02-01T01:08:15;8.00;99.90
5960;DHT22;3006;50.956;7.002;2023-02-01T01:10:43;8.00;99.90
5960;DHT22;3006;50.956;7.002;2023-02-01T01:13:11;8.00;99.90
5960;DHT22;3006;50.956;7.002;2023-02-01T01:15:40;8.00;99.90
5960;DHT22;3006;50.956;7.002;2023-02-01T01:18:08;8.00;99.90
5960;DHT22;3006;50.956;7.002;2023-02-01T01:20:39;8.00;99.90
5960;DHT22;3006;50.956;7.002;2023-02-01T01:23:08;8.00;99.90
5960;DHT22;3006;50.956;7.002;2023-02-01T01:25:39;8.00;99.90
5960;DHT22;3006;50.956;7.002;2023-02-01T01:28:07;8.00;99.90
5960;DHT22;3006;50.956;7.002;2023-02-01T01:30:35;7.90;99.90
5960;DHT22;3006;50.956;7.002;2023-02-01T01:33:03;7.80;99.90
5960;DHT22;3006;50.956;7.002;2023-02-01T01:35:32;7.80;99.90
5960;DHT22;3006;50.956;7.002;2023-02-01T01:38:00;7.90;99.90
5960;DHT22;3006;50.956;7.002;2023-02-01T01:40:30;7.90;99.90
5960;DHT22;3006;50.956;7.002;2023-02-01T01:42:59;7.90;99.90
5960;DHT22;3006;50.956;7.002;2023-02-01T01:45:30;7.80;99.90
5960;DHT22;3006;50.956;7.002;2023-02-01T01:48:00;7.90;99.90
5960;DHT22;3006;50.956;7.002;2023-02-01T01:50:32;7.90;99.90
5960;DHT22;3006;50.956;7.002;2023-02-01T01:53:06;7.80;99.90
5960;DHT22;3006;50.956;7.002;2023-02-01T01:55:37;7.80;99.90
5960;DHT22;3006;50.956;7.002;2023-02-01T01:58:11;7.80;99.90
5960;DHT22;3006;50.956;7.002;2023-02-01T02:00:41;7.80;99.90
5960;DHT22;3006;50.956;7.002;2023-02-01T02:03:15;7.70;99.90
5960;DHT22;3006;50.956;7.002;2023-02-01T02:05:46;7.70;99.90
5960;DHT22;3006;50.956;7.002;2023-02-01T02:08:17;7.70;99.90
5960;DHT22;3006;50.956;7.002;2023-02-01T02:10:48;7.70;99.90
5960;DHT22;3006;50.956;7.002;2023-02-01T02:13:32;7.70;99.90
5960;DHT22;3006;50.956;7.002;2023-02-01T02:16:12;7.80;99.90
5960;DHT22;3006;50.956;7.002;2023-02-01T02:18:51;7.80;99.90
5960;DHT22;3006;50.956;7.002;2023-02-01T02:21:42;7.80;99.90
5960;DHT22;3006;50.956;7.002;2023-02-01T02:24:39;7.80;99.90
5960;DHT22;3006;50.956;7.002;2023-02-01T02:27:21;7.80;99.90
5960;DHT22;3006;50.956;7.002;2023-02-01T02:30:28;7.80;99.90
5960;DHT22;3006;50.956;7.002;2023-02-01T02:36:08;7.80;99.90
5960;DHT22;3006;50.956;7.002;2023-02-01T02:38:43;7.80;99.90
5960;DHT22;3006;50.956;7.002;2023-02-01T02:41:16;7.80;99.90
5960;DHT22;3006;50.956;7.002;2023-02-01T02:44:09;7.80;99.90
5960;DHT22;3006;50.956;7.002;2023-02-01T02:47:02;7.80;99.90
5960;DHT22;3006;50.956;7.002;2023-02-01T02:49:58;7.80;99.90
5960;DHT22;3006;50.956;7.002;2023-02-01T02:52:57;7.80;99.90
5960;DHT22;3006;50.956;7.002;2023-02-01T02:55:45;7.80;99.90
5960;DHT22;3006;50.956;7.002;2023-02-01T02:58:16;7.80;99.90
5960;DHT22;3006;50.956;7.002;2023-02-01T03:01:03;7.80;99.90
5960;DHT22;3006;50.956;7.002;2023-02-01T03:03:50;7.80;99.90
5960;DHT22;3006;50.956;7.002;2023-02-01T03:06:39;7.80;99.90
5960;DHT22;3006;50.956;7.002;2023-02-01T03:09:12;7.80;99.90
5960;DHT22;3006;50.956;7.002;2023-02-01T03:11:44;7.80;99.90
5960;DHT22;3006;50.956;7.002;2023-02-01T03:14:32;7.80;99.90
5960;DHT22;3006;50.956;7.002;2023-02-01T03:17:07;7.90;99.90
5960;DHT22;3006;50.956;7.002;2023-02-01T03:19:39;7.80;99.90
5960;DHT22;3006;50.956;7.002;2023-02-01T03:22:14;7.80;99.90
5960;DHT22;3006;50.956;7.002;2023-02-01T03:24:45;7.90;99.90
5960;DHT22;3006;50.956;7.002;2023-02-01T03:27:20;7.80;99.90
5960;DHT22;3006;50.956;7.002;2023-02-01T03:29:56;7.80;99.90
5960;DHT22;3006;50.956;7.002;2023-02-01T03:32:27;7.80;99.90
5960;DHT22;3006;50.956;7.002;2023-02-01T03:34:56;7.80;99.90
5960;DHT22;3006;50.956;7.002;2023-02-01T03:37:27;7.70;99.90
5960;DHT22;3006;50.956;7.002;2023-02-01T03:39:59;7.70;99.90
5960;DHT22;3006;50.956;7.002;2023-02-01T03:42:35;7.70;99.90
5960;DHT22;3006;50.956;7.002;2023-02-01T03:45:09;7.80;99.90
5960;DHT22;3006;50.956;7.002;2023-02-01T03:47:41;7.80;99.90
5960;DHT22;3006;50.956;7.002;2023-02-01T03:50:14;7.80;99.90
5960;DHT22;3006;50.956;7.002;2023-02-01T03:52:47;7.80;99.90
5960;DHT22;3006;50.956;7.002;2023-02-01T03:55:18;7.80;99.90
5960;DHT22;3006;50.956;7.002;2023-02-01T03:57:51;7.80;99.90
5960;DHT22;3006;50.956;7.002;2023-02-01T04:00:23;7.80;99.90
5960;DHT22;3006;50.956;7.002;2023-02-01T04:02:54;7.80;99.90
5960;DHT22;3006;50.956;7.002;2023-02-01T04:05:22;7.80;99.90
5960;DHT22;3006;50.956;7.002;2023-02-01T04:08:04;7.70;99.90
5960;DHT22;3006;50.956;7.002;2023-02-01T04:10:32;7.80;99.90
5960;DHT22;3006;50.956;7.002;2023-02-01T04:13:00;7.80;99.90
5960;DHT22;3006;50.956;7.002;2023-02-01T04:15:28;7.80;99.90
5960;DHT22;3006;50.956;7.002;2023-02-01T04:17:56;7.70;99.90
5960;DHT22;3006;50.956;7.002;2023-02-01T04:20:24;7.70;99.90
5960;DHT22;3006;50.956;7.002;2023-02-01T04:22:53;7.70;99.90
5960;DHT22;3006;50.956;7.002;2023-02-01T04:25:22;7.70;99.90
5960;DHT22;3006;50.956;7.002;2023-02-01T04:27:51;7.60;99.90
5960;DHT22;3006;50.956;7.002;2023-02-01T04:30:19;7.60;99.90
5960;DHT22;3006;50.956;7.002;2023-02-01T04:32:47;7.60;99.90
5960;DHT22;3006;50.956;7.002;2023-02-01T04:35:16;7.70;99.90
5960;DHT22;3006;50.956;7.002;2023-02-01T04:37:44;7.60;99.90
5960;DHT22;3006;50.956;7.002;2023-02-01T04:40:12;7.60;99.90
5960;DHT22;3006;50.956;7.002;2023-02-01T04:42:42;7.70;99.90
5960;DHT22;3006;50.956;7.002;2023-02-01T04:45:10;7.70;99.90
5960;DHT22;3006;50.956;7.002;2023-02-01T04:47:38;7.60;99.90
5960;DHT22;3006;50.956;7.002;2023-02-01T04:50:07;7.70;99.90
5960;DHT22;3006;50.956;7.002;2023-02-01T04:52:37;7.60;99.90
5960;DHT22;3006;50.956;7.002;2023-02-01T04:55:06;7.60;99.90
5960;DHT22;3006;50.956;7.002;2023-02-01T04:57:34;7.60;99.90
5960;DHT22;3006;50.956;7.002;2023-02-01T05:00:04;7.60;99.90
5960;DHT22;3006;50.956;7.002;2023-02-01T05:02:33;7.60;99.90
5960;DHT22;3006;50.956;7.002;2023-02-01T05:05:01;7.60;99.90
5960;DHT22;3006;50.956;7.002;2023-02-01T05:07:29;7.50;99.90
5960;DHT22;3006;50.956;7.002;2023-02-01T05:09:58;7.50;99.90
5960;DHT22;3006;50.956;7.002;2023-02-01T05:12:25;7.50;99.90
5960;DHT22;3006;50.956;7.002;2023-02-01T05:15:13;7.40;99.90
5960;DHT22;3006;50.956;7.002;2023-02-01T05:17:41;7.40;99.90
5960;DHT22;3006;50.956;7.002;2023-02-01T05:20:10;7.40;99.90
5960;DHT22;3006;50.956;7.002;2023-02-01T05:22:38;7.40;99.90
5960;DHT22;3006;50.956;7.002;2023-02-01T05:25:06;7.40;99.90
5960;DHT22;3006;50.956;7.002;2023-02-01T05:27:34;7.30;99.90
5960;DHT22;3006;50.956;7.002;2023-02-01T05:30:03;7.30;99.90
5960;DHT22;3006;50.956;7.002;2023-02-01T05:32:33;7.30;99.90
5960;DHT22;3006;50.956;7.002;2023-02-01T05:35:01;7.30;99.90
5960;DHT22;3006;50.956;7.002;2023-02-01T05:37:30;7.30;99.90
5960;DHT22;3006;50.956;7.002;2023-02-01T05:39:58;7.20;99.90
5960;DHT22;3006;50.956;7.002;2023-02-01T05:42:26;7.20;99.90
5960;DHT22;3006;50.956;7.002;2023-02-01T05:44:54;7.20;99.90
5960;DHT22;3006;50.956;7.002;2023-02-01T05:47:22;7.20;99.90
5960;DHT22;3006;50.956;7.002;2023-02-01T05:49:51;7.20;99.90
5960;DHT22;3006;50.956;7.002;2023-02-01T05:52:19;7.20;99.90
5960;DHT22;3006;50.956;7.002;2023-02-01T05:54:48;7.10;99.90
5960;DHT22;3006;50.956;7.002;2023-02-01T05:57:16;7.10;99.90
5960;DHT22;3006;50.956;7.002;2023-02-01T05:59:44;7.10;99.90
5960;DHT22;3006;50.956;7.002;2023-02-01T06:02:12;7.10;99.90
5960;DHT22;3006;50.956;7.002;2023-02-01T06:04:40;7.10;99.90
5960;DHT22;3006;50.956;7.002;2023-02-01T06:07:09;7.20;99.90
5960;DHT22;3006;50.956;7.002;2023-02-01T06:09:38;7.10;99.90
5960;DHT22;3006;50.956;7.002;2023-02-01T06:12:06;7.10;99.90
5960;DHT22;3006;50.956;7.002;2023-02-01T06:14:34;7.10;99.90
5960;DHT22;3006;50.956;7.002;2023-02-01T06:17:03;7.10;99.90
5960;DHT22;3006;50.956;7.002;2023-02-01T06:19:32;7.10;99.90
5960;DHT22;3006;50.956;7.002;2023-02-01T06:22:00;7.00;99.90
5960;DHT22;3006;50.956;7.002;2023-02-01T06:24:29;7.00;99.90
5960;DHT22;3006;50.956;7.002;2023-02-01T06:26:57;7.10;99.90
5960;DHT22;3006;50.956;7.002;2023-02-01T06:29:25;7.10;99.90
5960;DHT22;3006;50.956;7.002;2023-02-01T06:31:54;7.10;99.90
5960;DHT22;3006;50.956;7.002;2023-02-01T06:34:25;7.10;99.90
5960;DHT22;3006;50.956;7.002;2023-02-01T06:36:53;7.10;99.90
5960;DHT22;3006;50.956;7.002;2023-02-01T06:39:22;7.10;99.90
5960;DHT22;3006;50.956;7.002;2023-02-01T06:41:51;7.10;99.90
5960;DHT22;3006;50.956;7.002;2023-02-01T06:44:19;7.10;99.90
5960;DHT22;3006;50.956;7.002;2023-02-01T06:46:47;7.20;99.90
5960;DHT22;3006;50.956;7.002;2023-02-01T06:49:15;7.20;99.90
5960;DHT22;3006;50.956;7.002;2023-02-01T06:51:45;7.20;99.90
5960;DHT22;3006;50.956;7.002;2023-02-01T06:54:13;7.30;99.90
5960;DHT22;3006;50.956;7.002;2023-02-01T06:56:41;7.30;99.90
5960;DHT22;3006;50.956;7.002;2023-02-01T06:59:11;7.30;99.90
5960;DHT22;3006;50.956;7.002;2023-02-01T07:01:43;7.30;99.90
5960;DHT22;3006;50.956;7.002;2023-02-01T07:04:12;7.40;99.90
5960;DHT22;3006;50.956;7.002;2023-02-01T07:06:40;7.30;99.90
5960;DHT22;3006;50.956;7.002;2023-02-01T07:09:08;7.30;99.90
5960;DHT22;3006;50.956;7.002;2023-02-01T07:11:38;7.30;99.90
5960;DHT22;3006;50.956;7.002;2023-02-01T07:14:11;7.30;99.90
5960;DHT22;3006;50.956;7.002;2023-02-01T07:16:39;7.30;99.90
5960;DHT22;3006;50.956;7.002;2023-02-01T07:19:07;7.30;99.90
5960;DHT22;3006;50.956;7.002;2023-02-01T07:21:35;7.30;99.90
5960;DHT22;3006;50.956;7.002;2023-02-01T07:24:04;7.30;99.90
5960;DHT22;3006;50.956;7.002;2023-02-01T07:26:32;7.30;99.90
5960;DHT22;3006;50.956;7.002;2023-02-01T07:29:00;7.30;99.90
5960;DHT22;3006;50.956;7.002;2023-02-01T07:31:29;7.30;99.90
5960;DHT22;3006;50.956;7.002;2023-02-01T07:33:57;7.30;99.90
5960;DHT22;3006;50.956;7.002;2023-02-01T07:36:26;7.30;99.90
5960;DHT22;3006;50.956;7.002;2023-02-01T07:38:54;7.30;99.90
5960;DHT22;3006;50.956;7.002;2023-02-01T07:41:22;8.00;99.90
5960;DHT22;3006;50.956;7.002;2023-02-01T07:43:52;8.70;99.90
5960;DHT22;3006;50.956;7.002;2023-02-01T07:46:21;9.10;99.90
5960;DHT22;3006;50.956;7.002;2023-02-01T07:48:50;9.20;99.90
5960;DHT22;3006;50.956;7.002;2023-02-01T07:51:18;9.30;99.90
5960;DHT22;3006;50.956;7.002;2023-02-01T07:53:47;9.40;99.90
5960;DHT22;3006;50.956;7.002;2023-02-01T07:56:16;9.00;99.90
5960;DHT22;3006;50.956;7.002;2023-02-01T07:58:47;8.70;99.90
5960;DHT22;3006;50.956;7.002;2023-02-01T08:01:17;8.70;99.90
5960;DHT22;3006;50.956;7.002;2023-02-01T08:03:48;9.00;99.90
5960;DHT22;3006;50.956;7.002;2023-02-01T08:06:17;9.00;99.90
5960;DHT22;3006;50.956;7.002;2023-02-01T08:08:47;8.80;99.90
5960;DHT22;3006;50.956;7.002;2023-02-01T08:11:16;8.30;99.90
5960;DHT22;3006;50.956;7.002;2023-02-01T08:13:45;8.10;99.90
5960;DHT22;3006;50.956;7.002;2023-02-01T08:16:14;7.90;99.90
5960;DHT22;3006;50.956;7.002;2023-02-01T08:18:44;7.70;99.90
5960;DHT22;3006;50.956;7.002;2023-02-01T08:21:14;7.60;99.90
5960;DHT22;3006;50.956;7.002;2023-02-01T08:23:46;7.50;99.90
5960;DHT22;3006;50.956;7.002;2023-02-01T08:26:16;7.40;99.90
5960;DHT22;3006;50.956;7.002;2023-02-01T08:28:49;7.40;99.90
5960;DHT22;3006;50.956;7.002;2023-02-01T08:31:23;7.30;99.90
5960;DHT22;3006;50.956;7.002;2023-02-01T08:33:53;7.40;99.90
5960;DHT22;3006;50.956;7.002;2023-02-01T08:36:22;7.40;99.90
5960;DHT22;3006;50.956;7.002;2023-02-01T08:38:52;7.40;99.90
5960;DHT22;3006;50.956;7.002;2023-02-01T08:41:21;7.30;99.90
5960;DHT22;3006;50.956;7.002;2023-02-01T08:43:50;7.30;99.90
5960;DHT22;3006;50.956;7.002;2023-02-01T08:46:19;7.30;99.90
5960;DHT22;3006;50.956;7.002;2023-02-01T08:48:48;7.30;99.90
5960;DHT22;3006;50.956;7.002;2023-02-01T08:51:18;7.40;99.90
5960;DHT22;3006;50.956;7.002;2023-02-01T08:53:47;7.40;99.90
5960;DHT22;3006;50.956;7.002;2023-02-01T08:56:18;7.50;99.90
5960;DHT22;3006;50.956;7.002;2023-02-01T08:58:46;7.50;99.90
5960;DHT22;3006;50.956;7.002;2023-02-01T09:01:15;7.50;99.90
5960;DHT22;3006;50.956;7.002;2023-02-01T09:03:44;7.50;99.90
5960;DHT22;3006;50.956;7.002;2023-02-01T09:06:14;7.60;99.90
5960;DHT22;3006;50.956;7.002;2023-02-01T09:08:43;7.60;99.90
5960;DHT22;3006;50.956;7.002;2023-02-01T09:11:13;7.60;99.90
5960;DHT22;3006;50.956;7.002;2023-02-01T09:13:42;7.70;99.90
5960;DHT22;3006;50.956;7.002;2023-02-01T09:16:10;7.60;99.90
5960;DHT22;3006;50.956;7.002;2023-02-01T09:18:39;7.70;99.90
5960;DHT22;3006;50.956;7.002;2023-02-01T09:21:27;7.70;99.90
5960;DHT22;3006;50.956;7.002;2023-02-01T09:23:56;7.80;99.90
5960;DHT22;3006;50.956;7.002;2023-02-01T09:26:24;7.90;99.90
5960;DHT22;3006;50.956;7.002;2023-02-01T09:29:00;7.90;99.90
5960;DHT22;3006;50.956;7.002;2023-02-01T09:31:29;7.90;99.90
5960;DHT22;3006;50.956;7.002;2023-02-01T09:33:57;7.90;99.90
5960;DHT22;3006;50.956;7.002;2023-02-01T09:36:26;7.80;99.90
5960;DHT22;3006;50.956;7.002;2023-02-01T09:38:57;7.80;99.90
5960;DHT22;3006;50.956;7.002;2023-02-01T09:41:35;7.80;99.90
5960;DHT22;3006;50.956;7.002;2023-02-01T09:44:22;7.80;99.90
5960;DHT22;3006;50.956;7.002;2023-02-01T09:47:01;7.90;99.90
5960;DHT22;3006;50.956;7.002;2023-02-01T09:49:30;7.90;99.90
5960;DHT22;3006;50.956;7.002;2023-02-01T09:52:04;7.90;99.90
5960;DHT22;3006;50.956;7.002;2023-02-01T09:54:41;8.00;99.90
5960;DHT22;3006;50.956;7.002;2023-02-01T09:57:16;8.00;99.90
5960;DHT22;3006;50.956;7.002;2023-02-01T09:59:52;8.00;99.90
5960;DHT22;3006;50.956;7.002;2023-02-01T10:02:26;8.00;99.90
5960;DHT22;3006;50.956;7.002;2023-02-01T10:04:59;8.00;99.90
5960;DHT22;3006;50.956;7.002;2023-02-01T10:07:37;8.10;99.90
5960;DHT22;3006;50.956;7.002;2023-02-01T10:10:13;8.10;99.90
5960;DHT22;3006;50.956;7.002;2023-02-01T10:15:50;7.90;99.90
5960;DHT22;3006;50.956;7.002;2023-02-01T10:18:34;7.90;99.90
5960;DHT22;3006;50.956;7.002;2023-02-01T10:21:14;8.00;99.90
5960;DHT22;3006;50.956;7.002;2023-02-01T10:24:06;8.10;99.90
5960;DHT22;3006;50.956;7.002;2023-02-01T10:26:46;8.10;99.90
5960;DHT22;3006;50.956;7.002;2023-02-01T10:29:20;8.10;99.90
5960;DHT22;3006;50.956;7.002;2023-02-01T10:31:49;8.20;99.90
5960;DHT22;3006;50.956;7.002;2023-02-01T10:34:21;8.20;99.90
5960;DHT22;3006;50.956;7.002;2023-02-01T10:36:57;8.20;99.90
5960;DHT22;3006;50.956;7.002;2023-02-01T10:39:27;8.20;99.90
5960;DHT22;3006;50.956;7.002;2023-02-01T10:41:56;8.20;99.90
5960;DHT22;3006;50.956;7.002;2023-02-01T10:44:27;8.30;99.90
5960;DHT22;3006;50.956;7.002;2023-02-01T10:46:57;8.40;99.90
5960;DHT22;3006;50.956;7.002;2023-02-01T10:49:33;8.50;99.90
5960;DHT22;3006;50.956;7.002;2023-02-01T10:52:07;8.50;99.90
5960;DHT22;3006;50.956;7.002;2023-02-01T10:54:39;8.60;99.90
5960;DHT22;3006;50.956;7.002;2023-02-01T10:57:08;8.60;99.90
5960;DHT22;3006;50.956;7.002;2023-02-01T10:59:37;8.70;99.90
5960;DHT22;3006;50.956;7.002;2023-02-01T11:02:25;8.80;99.90
5960;DHT22;3006;50.956;7.002;2023-02-01T11:05:00;8.70;99.90
5960;DHT22;3006;50.956;7.002;2023-02-01T11:07:28;8.80;99.90
5960;DHT22;3006;50.956;7.002;2023-02-01T11:09:57;8.80;99.90
5960;DHT22;3006;50.956;7.002;2023-02-01T11:12:29;8.80;99.90
5960;DHT22;3006;50.956;7.002;2023-02-01T11:15:01;8.80;99.90
5960;DHT22;3006;50.956;7.002;2023-02-01T11:17:35;8.70;99.90
5960;DHT22;3006;50.956;7.002;2023-02-01T11:20:08;8.70;99.90
5960;DHT22;3006;50.956;7.002;2023-02-01T11:22:46;8.60;99.90
5960;DHT22;3006;50.956;7.002;2023-02-01T11:25:16;8.60;99.90
5960;DHT22;3006;50.956;7.002;2023-02-01T11:27:45;8.60;99.90
5960;DHT22;3006;50.956;7.002;2023-02-01T11:30:30;8.70;99.90
5960;DHT22;3006;50.956;7.002;2023-02-01T11:33:03;8.70;99.90
5960;DHT22;3006;50.956;7.002;2023-02-01T11:35:37;8.70;99.90
5960;DHT22;3006;50.956;7.002;2023-02-01T11:38:15;8.80;99.90
5960;DHT22;3006;50.956;7.002;2023-02-01T11:40:45;8.90;99.90
5960;DHT22;3006;50.956;7.002;2023-02-01T11:43:17;8.90;99.90
5960;DHT22;3006;50.956;7.002;2023-02-01T11:45:54;8.90;99.90
5960;DHT22;3006;50.956;7.002;2023-02-01T11:48:26;8.90;99.90
5960;DHT22;3006;50.956;7.002;2023-02-01T11:51:08;9.00;99.90
5960;DHT22;3006;50.956;7.002;2023-02-01T11:54:00;9.00;99.90
5960;DHT22;3006;50.956;7.002;2023-02-01T11:56:36;8.80;99.90
5960;DHT22;3006;50.956;7.002;2023-02-01T11:59:15;8.80;99.90
5960;DHT22;3006;50.956;7.002;2023-02-01T12:02:09;8.80;99.90
5960;DHT22;3006;50.956;7.002;2023-02-01T12:05:02;8.90;99.90
5960;DHT22;3006;50.956;7.002;2023-02-01T12:07:46;8.80;99.90
5960;DHT22;3006;50.956;7.002;2023-02-01T12:10:25;8.80;99.90
5960;DHT22;3006;50.956;7.002;2023-02-01T12:13:02;8.80;99.90
5960;DHT22;3006;50.956;7.002;2023-02-01T12:15:40;8.80;99.90
5960;DHT22;3006;50.956;7.002;2023-02-01T12:18:37;8.80;99.90
5960;DHT22;3006;50.956;7.002;2023-02-01T12:21:22;8.70;99.90
5960;DHT22;3006;50.956;7.002;2023-02-01T12:24:08;8.70;99.90
5960;DHT22;3006;50.956;7.002;2023-02-01T12:29:48;8.60;99.90
5960;DHT22;3006;50.956;7.002;2023-02-01T12:32:29;8.70;99.90
5960;DHT22;3006;50.956;7.002;2023-02-01T12:35:13;8.80;99.90
5960;DHT22;3006;50.956;7.002;2023-02-01T12:37:54;8.80;99.90
5960;DHT22;3006;50.956;7.002;2023-02-01T12:40:33;8.80;99.90
5960;DHT22;3006;50.956;7.002;2023-02-01T12:43:07;8.80;99.90
5960;DHT22;3006;50.956;7.002;2023-02-01T12:45:41;8.80;99.90
5960;DHT22;3006;50.956;7.002;2023-02-01T12:48:23;8.90;99.90
5960;DHT22;3006;50.956;7.002;2023-02-01T12:50:54;8.90;99.90
5960;DHT22;3006;50.956;7.002;2023-02-01T12:53:31;9.00;99.90
5960;DHT22;3006;50.956;7.002;2023-02-01T12:56:06;8.90;99.90
5960;DHT22;3006;50.956;7.002;2023-02-01T12:58:40;8.90;99.90
5960;DHT22;3006;50.956;7.002;2023-02-01T13:01:16;8.90;99.90
5960;DHT22;3006;50.956;7.002;2023-02-01T13:03:54;8.90;99.90
5960;DHT22;3006;50.956;7.002;2023-02-01T13:06:31;8.90;99.90
5960;DHT22;3006;50.956;7.002;2023-02-01T13:09:09;8.90;99.90
5960;DHT22;3006;50.956;7.002;2023-02-01T13:11:43;8.80;99.90
5960;DHT22;3006;50.956;7.002;2023-02-01T13:14:23;8.90;99.90
5960;DHT22;3006;50.956;7.002;2023-02-01T13:16:57;8.90;99.90
5960;DHT22;3006;50.956;7.002;2023-02-01T13:19:29;8.90;99.90
5960;DHT22;3006;50.956;7.002;2023-02-01T13:22:05;8.90;99.90
5960;DHT22;3006;50.956;7.002;2023-02-01T13:24:39;8.90;99.90
5960;DHT22;3006;50.956;7.002;2023-02-01T13:27:11;8.90;99.90
5960;DHT22;3006;50.956;7.002;2023-02-01T13:29:46;8.90;99.90
5960;DHT22;3006;50.956;7.002;2023-02-01T13:32:45;8.90;99.90
5960;DHT22;3006;50.956;7.002;2023-02-01T13:38:45;8.90;99.90
5960;DHT22;3006;50.956;7.002;2023-02-01T13:41:27;8.90;99.90
5960;DHT22;3006;50.956;7.002;2023-02-01T13:43:59;8.90;99.90
5960;DHT22;3006;50.956;7.002;2023-02-01T13:46:28;8.80;99.90
5960;DHT22;3006;50.956;7.002;2023-02-01T13:48:59;8.90;99.90
5960;DHT22;3006;50.956;7.002;2023-02-01T13:51:38;8.90;99.90
5960;DHT22;3006;50.956;7.002;2023-02-01T13:54:27;8.90;99.90
5960;DHT22;3006;50.956;7.002;2023-02-01T13:56:58;8.80;99.90
5960;DHT22;3006;50.956;7.002;2023-02-01T13:59:49;8.80;99.90
5960;DHT22;3006;50.956;7.002;2023-02-01T14:02:44;8.80;99.90
5960;DHT22;3006;50.956;7.002;2023-02-01T14:08:23;8.90;99.90
5960;DHT22;3006;50.956;7.002;2023-02-01T14:10:54;8.90;99.90
5960;DHT22;3006;50.956;7.002;2023-02-01T14:13:27;8.90;99.90
5960;DHT22;3006;50.956;7.002;2023-02-01T14:16:16;8.90;99.90
5960;DHT22;3006;50.956;7.002;2023-02-01T14:18:59;8.90;99.90
5960;DHT22;3006;50.956;7.002;2023-02-01T14:21:29;8.90;99.90
5960;DHT22;3006;50.956;7.002;2023-02-01T14:24:00;9.00;99.90
5960;DHT22;3006;50.956;7.002;2023-02-01T14:26:42;9.00;99.90
5960;DHT22;3006;50.956;7.002;2023-02-01T14:29:30;9.00;99.90
5960;DHT22;3006;50.956;7.002;2023-02-01T14:32:02;9.00;99.90
5960;DHT22;3006;50.956;7.002;2023-02-01T14:34:38;9.00;99.90
5960;DHT22;3006;50.956;7.002;2023-02-01T14:37:12;9.00;99.90
5960;DHT22;3006;50.956;7.002;2023-02-01T14:39:53;9.00;99.90
5960;DHT22;3006;50.956;7.002;2023-02-01T14:42:25;9.00;99.90
5960;DHT22;3006;50.956;7.002;2023-02-01T14:47:49;9.10;99.90
5960;DHT22;3006;50.956;7.002;2023-02-01T14:50:36;9.10;99.90
5960;DHT22;3006;50.956;7.002;2023-02-01T14:53:17;9.10;99.90
5960;DHT22;3006;50.956;7.002;2023-02-01T14:55:51;9.10;99.90
5960;DHT22;3006;50.956;7.002;2023-02-01T14:58:35;9.10;99.90
5960;DHT22;3006;50.956;7.002;2023-02-01T15:01:17;9.10;99.90
5960;DHT22;3006;50.956;7.002;2023-02-01T15:03:55;9.10;99.90
5960;DHT22;3006;50.956;7.002;2023-02-01T15:06:32;9.10;99.90
5960;DHT22;3006;50.956;7.002;2023-02-01T15:09:04;9.20;99.90
5960;DHT22;3006;50.956;7.002;2023-02-01T15:11:53;9.20;99.90
5960;DHT22;3006;50.956;7.002;2023-02-01T15:14:22;9.20;99.90
5960;DHT22;3006;50.956;7.002;2023-02-01T15:16:51;9.20;99.90
5960;DHT22;3006;50.956;7.002;2023-02-01T15:19:23;9.20;99.90
5960;DHT22;3006;50.956;7.002;2023-02-01T15:21:53;9.10;99.90
5960;DHT22;3006;50.956;7.002;2023-02-01T15:24:35;9.10;99.90
5960;DHT22;3006;50.956;7.002;2023-02-01T15:27:05;9.10;99.90
5960;DHT22;3006;50.956;7.002;2023-02-01T15:29:33;9.20;99.90
5960;DHT22;3006;50.956;7.002;2023-02-01T15:32:03;9.10;99.90
5960;DHT22;3006;50.956;7.002;2023-02-01T15:34:46;9.10;99.90
5960;DHT22;3006;50.956;7.002;2023-02-01T15:37:15;9.10;99.90
5960;DHT22;3006;50.956;7.002;2023-02-01T15:40:18;9.10;99.90
5960;DHT22;3006;50.956;7.002;2023-02-01T15:42:51;9.10;99.90
5960;DHT22;3006;50.956;7.002;2023-02-01T15:45:21;9.10;99.90
5960;DHT22;3006;50.956;7.002;2023-02-01T15:47:53;9.10;99.90
5960;DHT22;3006;50.956;7.002;2023-02-01T15:50:23;9.10;99.90
5960;DHT22;3006;50.956;7.002;2023-02-01T15:52:53;9.10;99.90
5960;DHT22;3006;50.956;7.002;2023-02-01T15:55:30;9.10;99.90
5960;DHT22;3006;50.956;7.002;2023-02-01T15:58:00;9.10;99.90
5960;DHT22;3006;50.956;7.002;2023-02-01T16:00:42;9.20;99.90
5960;DHT22;3006;50.956;7.002;2023-02-01T16:03:26;9.20;99.90
5960;DHT22;3006;50.956;7.002;2023-02-01T16:05:56;9.40;99.90
5960;DHT22;3006;50.956;7.002;2023-02-01T16:08:26;9.30;99.90
5960;DHT22;3006;50.956;7.002;2023-02-01T16:11:01;9.30;99.90
5960;DHT22;3006;50.956;7.002;2023-02-01T16:13:29;9.30;99.90
5960;DHT22;3006;50.956;7.002;2023-02-01T16:15:57;9.20;99.90
5960;DHT22;3006;50.956;7.002;2023-02-01T16:18:27;9.20;99.90
5960;DHT22;3006;50.956;7.002;2023-02-01T16:20:55;9.20;99.90
5960;DHT22;3006;50.956;7.002;2023-02-01T16:23:23;9.10;99.90
5960;DHT22;3006;50.956;7.002;2023-02-01T16:25:52;9.10;99.90
5960;DHT22;3006;50.956;7.002;2023-02-01T16:28:20;9.10;99.90
5960;DHT22;3006;50.956;7.002;2023-02-01T16:30:49;9.10;99.90
5960;DHT22;3006;50.956;7.002;2023-02-01T16:33:19;9.10;99.90
5960;DHT22;3006;50.956;7.002;2023-02-01T16:35:50;9.00;99.90
5960;DHT22;3006;50.956;7.002;2023-02-01T16:38:20;9.00;99.90
5960;DHT22;3006;50.956;7.002;2023-02-01T16:40:50;9.00;99.90
5960;DHT22;3006;50.956;7.002;2023-02-01T16:43:19;9.00;99.90
5960;DHT22;3006;50.956;7.002;2023-02-01T16:45:50;9.00;99.90
5960;DHT22;3006;50.956;7.002;2023-02-01T16:48:22;8.90;99.90
5960;DHT22;3006;50.956;7.002;2023-02-01T16:50:53;8.90;99.90
5960;DHT22;3006;50.956;7.002;2023-02-01T16:53:23;8.90;99.90
5960;DHT22;3006;50.956;7.002;2023-02-01T16:55:51;8.90;99.90
5960;DHT22;3006;50.956;7.002;2023-02-01T16:58:20;8.80;99.90
5960;DHT22;3006;50.956;7.002;2023-02-01T17:00:49;8.80;99.90
5960;DHT22;3006;50.956;7.002;2023-02-01T17:03:17;8.90;99.90
5960;DHT22;3006;50.956;7.002;2023-02-01T17:05:47;8.80;99.90
5960;DHT22;3006;50.956;7.002;2023-02-01T17:08:19;8.80;99.90
5960;DHT22;3006;50.956;7.002;2023-02-01T17:10:48;8.80;99.90
5960;DHT22;3006;50.956;7.002;2023-02-01T17:13:16;8.80;99.90